Aviation Digital Data Service (ADDS)

Output produced by METARs form (1353 UTC 13 December 2019)
found at http://www.aviationweather.gov/metar/data/
 
Forecast for: ZYHB (HARBIN , CN)
Text: TAF ZYHB 130855Z 1312/1412 28004MPS 6000 BKN026 TXM04/06Z TNM15/22Z
Forecast period: 1200 UTC 13 December 2019 to 1200 UTC 14 December 2019
Forecast type: FROM: standard forecast or significant change
Winds: from the W (280 degrees) at 9 MPH (8 knots; 4.1 m/s)
Visibility: 4 miles (6 km)
Ceiling: 2600 feet AGL
Clouds: broken clouds at 2600 feet AGL
Weather: no significant weather forecast for this period